Tiempo atmosférico en la estación meteorológica de La Vall de Boi, Lleida (1092 m.)



Fecha
DESCASC
Temp. máxima en grados centígrados (hora)
DESCASC
Temp. mínima en grados centígrados (hora)
DESCASC
Temp. media en grados centígrados
DESCASC
Racha de viento máxima en m/sg (hora)
DESCASC
Velocidad máxima media en intervalos de 10 minutos(hora)
DESCASC
Precipitaciones diarias en mm
DESCASC
Precipitaciones de 00:00 a 06:00 en mm
DESCASC
Precipitaciones de 06:00 a 12:00 en mm
DESCASC
Precipitaciones de 12:00 a 18:00 en mm
DESCASC
Precipitaciones de 18:00 a 24:00 en mm
DESCASC

Gráficas

Temp. máximas Temp. mínimas Temp. medias Precipitaciones Rachas de viento máximas Velocidades máximas media en intervalos de 10 minutos

Datos horarios

Fecha y hora oficial Temperatura (ºC) Velocidad del viento (km/h) Dirección del viento Racha (km/h) Dirección de racha Precipitación (mm) Presión (hPa) Tendencia (hPa) Humedad (%)
2019-12-15 23:00:00 -0.3 0 Calma 4 Sudeste 0 -- -- 99
2019-12-15 22:00:00 0 3 Nordeste 4 Nordeste 0 -- -- 98
2019-12-15 21:00:00 0.6 0 Calma 4 Norte 0 -- -- 97
2019-12-15 20:00:00 1.2 0 Calma 3 Este 0 -- -- 96
2019-12-15 19:00:00 1.8 0 Calma 4 Sudeste 0 -- -- 92
2019-12-15 18:00:00 3.4 0 Calma 3 Norte 0 -- -- 86
2019-12-15 17:00:00 6.3 2 Sudeste 4 Sudeste 0 -- -- 77
2019-12-15 16:00:00 9.8 3 Sur 6 Sudeste 0 -- -- 65
2019-12-15 15:00:00 10.3 3 Sudeste 6 Este 0 -- -- 62
2019-12-15 14:00:00 10.1 2 Sur 5 Sudeste 0 -- -- 61
2019-12-15 13:00:00 7.4 3 Sudeste 6 Sur 0 -- -- 69
2019-12-15 12:00:00 3.7 2 Sur 5 Este 0 -- -- 90
2019-12-15 11:00:00 -1.6 0 Calma 4 Sudeste 0 -- -- 100
2019-12-15 10:00:00 -2.4 0 Calma 5 Sudeste 0 -- -- 100
2019-12-15 09:00:00 -2.6 0 Calma 5 Este 0 -- -- 100
2019-12-15 08:00:00 -2.1 2 Nordeste 5 Norte 0 -- -- 100
2019-12-15 07:00:00 -1.9 2 Norte 6 Este 0 -- -- 100
2019-12-15 06:00:00 -1.4 3 Este 8 Norte 0 -- -- 100
2019-12-15 05:00:00 -1 2 Norte 6 Noroeste 0 -- -- 100
2019-12-15 04:00:00 -0.9 0 Calma 6 Sudeste 0 -- -- 100
2019-12-15 03:00:00 -0.7 3 Norte 5 Norte 0 -- -- 100
2019-12-15 02:00:00 -0.3 3 Noroeste 5 Sudeste 0 -- -- 100
2019-12-15 01:00:00 0.1 2 Norte 4 Sur 0 -- -- 100
2019-12-15 00:00:00 0.8 0 Calma 9 Sur 0 -- -- 100
2019-12-14 23:00:00 0.9 3 Noroeste 8 Sur 0 -- -- 100
2019-12-14 22:00:00 0.5 2 Nordeste 5 Norte 0 -- -- 100
2019-12-14 21:00:00 1 3 Norte 8 Sudeste 0 -- -- 100
2019-12-14 20:00:00 1.5 0 Calma 6 Norte 0 -- -- 99
2019-12-14 19:00:00 2.4 0 Calma 6 Sudeste 0 -- -- 96
2019-12-14 18:00:00 4 2 Este 3 Nordeste 0 -- -- 91
2019-12-14 17:00:00 6.7 0 Calma 5 Sur 0 -- -- 83
2019-12-14 16:00:00 9.7 2 Sur 4 Sudeste 0 -- -- 83
2019-12-14 15:00:00 9.9 0 Calma 5 Este 0 -- -- 80
2019-12-14 14:00:00 10.3 0 Calma 5 Sudeste 0 -- -- 77
2019-12-14 13:00:00 8.5 0 Calma 5 Sudeste 0 -- -- 82
2019-12-14 12:00:00 5.3 5 Sudeste 8 Sudeste 0 -- -- 100
2019-12-14 11:00:00 1.3 0 Calma 10 Este 0 -- -- 100
2019-12-14 10:00:00 0.3 2 Este 9 Este 0 -- -- 100
2019-12-14 09:00:00 -0.2 2 Este 8 Sur 0 -- -- 100
2019-12-14 08:00:00 0.6 2 Sudoeste 14 Norte 0 -- -- 100
2019-12-14 07:00:00 -0.2 2 Sudoeste 6 Norte 0 -- -- 100
2019-12-14 06:00:00 0.3 0 Calma 13 Este 0 -- -- 100
2019-12-14 05:00:00 0.2 3 Oeste 10 Sudeste 0 -- -- 100
2019-12-14 04:00:00 1.1 3 Oeste 10 Noroeste 0 -- -- 100
2019-12-14 03:00:00 1.7 2 Nordeste 8 Oeste 0 -- -- 100
2019-12-14 02:00:00 2.6 4 Nordeste 8 Sudeste 0 -- -- 100
2019-12-14 01:00:00 3.5 3 Norte 13 Sudeste 0 -- -- 100
2019-12-14 00:00:00 4.2 5 Noroeste 15 Nordeste 0 -- -- 99
2019-12-13 23:00:00 3.8 3 Este 11 Norte 0 -- -- 100
2019-12-13 22:00:00 3.6 3 Sudeste 12 Norte 0 -- -- 100
2019-12-13 21:00:00 4.2 4 Sur 9 Norte 0.2 -- -- 99
2019-12-13 20:00:00 5.1 3 Este 9 Este 0.2 -- -- 96
2019-12-13 19:00:00 6.4 5 Nordeste 15 Este 0.2 -- -- 93
2019-12-13 18:00:00 6.2 6 Nordeste 19 Nordeste 0.6 -- -- 94
2019-12-13 17:00:00 6.8 7 Norte 14 Sudeste 0.6 -- -- 97
2019-12-13 16:00:00 7 5 Norte 15 Noroeste 1.4 -- -- 96
2019-12-13 15:00:00 6.6 2 Noroeste 26 Nordeste 1.2 -- -- 95
2019-12-13 14:00:00 6.5 14 Nordeste 28 Nordeste 0.2 -- -- 89
2019-12-13 13:00:00 5 7 Este 16 Este 0 -- -- 97
2019-12-13 12:00:00 2.7 6 Sur 11 Norte 0.4 -- -- 100
2019-12-13 11:00:00 1.6 3 Norte 8 Este 1.2 -- -- 100
2019-12-13 10:00:00 0.9 5 Sudeste 10 Este 1 -- -- 100
2019-12-13 09:00:00 0.6 3 Sudeste 10 Oeste 0.2 -- -- 100
2019-12-13 08:00:00 0.5 3 Noroeste 8 Sudeste 1.4 -- -- 100
2019-12-13 07:00:00 0.4 2 Sur 9 Noroeste 1.8 -- -- 100
2019-12-13 06:00:00 0.4 0 Calma 10 Sur 1.2 -- -- 100
2019-12-13 05:00:00 0.3 3 Sudoeste 8 Sur 1.2 -- -- 100
2019-12-13 04:00:00 0.3 0 Calma 4 Noroeste 0.8 -- -- 100
2019-12-13 03:00:00 0.2 0 Calma 4 Sur 2 -- -- 100
2019-12-13 02:00:00 0.2 0 Calma 4 Sudeste 1.2 -- -- 100
2019-12-13 01:00:00 0.2 0 Calma 4 Oeste 1.4 -- -- 100
2019-12-13 00:00:00 0.2 0 Calma 0 Calma 1.8 -- -- 100
2019-12-12 23:00:00 0.2 0 Calma 0 Calma 1.2 -- -- 100
2019-12-12 22:00:00 0.2 0 Calma 2 Noroeste 1 -- -- 99
2019-12-12 21:00:00 0.3 0 Calma 2 Sudeste 1.4 -- -- 98
2019-12-12 20:00:00 0.4 0 Calma 4 Sudoeste 2.2 -- -- 97
2019-12-12 19:00:00 0.7 4 Sudeste 17 Oeste 1.8 -- -- 96
2019-12-12 18:00:00 1.8 8 Oeste 19 Oeste 2 -- -- 92
2019-12-12 17:00:00 3.2 8 Oeste 16 Oeste 0.6 -- -- 89
2019-12-12 16:00:00 3.9 5 Oeste 13 Sudoeste 0 -- -- 84
2019-12-12 15:00:00 4.3 9 Sudoeste 19 Sudoeste 0 -- -- 80
2019-12-12 14:00:00 4.5 9 Oeste 23 Oeste 0 -- -- 74
2019-12-12 13:00:00 4.8 13 Oeste 21 Sudoeste 0 -- -- 70
2019-12-12 12:00:00 4 7 Sudoeste 20 Sudoeste 0 -- -- 74
2019-12-12 11:00:00 0 2 Sudoeste 6 Sur 0 -- -- 93
2019-12-12 10:00:00 -1.1 0 Calma 6 Sudeste 0 -- -- 93
2019-12-12 09:00:00 -1.1 0 Calma 13 Sudoeste 0 -- -- 91
2019-12-12 08:00:00 -0.4 0 Calma 7 Este 0 -- -- 90
2019-12-12 07:00:00 0.5 4 Este 13 Sudoeste 0 -- -- 88
2019-12-12 06:00:00 0.5 3 Oeste 6 Oeste 0 -- -- 86
2019-12-12 05:00:00 0.7 0 Calma 7 Norte 0 -- -- 82
2019-12-12 04:00:00 0.8 5 Sudoeste 9 Sudoeste 0 -- -- 79
2019-12-12 03:00:00 1 0 Calma 5 Sur 0 -- -- 78
2019-12-12 02:00:00 1.3 0 Calma 7 Sudoeste 0 -- -- 75
2019-12-12 01:00:00 1.7 4 Sur 23 Sudoeste 0 -- -- 70
2019-12-12 00:00:00 1 3 Norte 8 Sur 0 -- -- 72
2019-12-11 23:00:00 0.6 3 Norte 8 Este 0 -- -- 71
2019-12-11 22:00:00 0.2 3 Este 6 Noroeste 0 -- -- 75
2019-12-11 21:00:00 0 3 Sudoeste 10 Oeste 0 -- -- 74
2019-12-11 20:00:00 1.1 2 Sudoeste 11 Oeste 0 -- -- 65
2019-12-11 19:00:00 4.2 4 Noroeste 24 Este 0 -- -- 51
2019-12-11 18:00:00 5.6 10 Este 27 Nordeste 0 -- -- 43
2019-12-11 17:00:00 6.7 9 Este 28 Este 0 -- -- 49
2019-12-11 16:00:00 7.8 9 Nordeste 37 Este 0 -- -- 51
2019-12-11 15:00:00 7 5 Este 18 Este 0 -- -- 73
2019-12-11 14:00:00 6.5 10 Este 26 Nordeste 0.2 -- -- 71
2019-12-11 13:00:00 7.9 0 Calma 5 Sudoeste 0 -- -- 47
2019-12-11 12:00:00 6.2 0 Calma 5 Sudeste 0 -- -- 56
2019-12-11 11:00:00 3.9 0 Calma 9 Sudoeste 0 -- -- 66
2019-12-11 10:00:00 1.9 2 Sur 8 Sudoeste 0 -- -- 74
2019-12-11 09:00:00 0.7 3 Este 8 Sudoeste 0 -- -- 82
2019-12-11 08:00:00 0.3 2 Nordeste 8 Sudoeste 0 -- -- 81
2019-12-11 07:00:00 0.4 0 Calma 3 Norte 0 -- -- 80
2019-12-11 06:00:00 0.5 2 Nordeste 8 Sudoeste 0 -- -- 76
2019-12-11 05:00:00 0.7 0 Calma 4 Sudeste 0 -- -- 78
2019-12-11 04:00:00 0.3 2 Oeste 7 Norte 0 -- -- 77
2019-12-11 03:00:00 -0.2 0 Calma 6 Norte 0 -- -- 79
2019-12-11 02:00:00 -1.2 2 Sudeste 10 Sudoeste 0 -- -- 77
2019-12-11 01:00:00 -1.3 3 Este 6 Norte 0 -- -- 78
2019-12-11 00:00:00 -0.9 0 Calma 4 Este 0 -- -- 77
2019-12-10 23:00:00 0 0 Calma 4 Este 0 -- -- 74
2019-12-10 22:00:00 0.7 0 Calma 4 Sur 0 -- -- 73
2019-12-10 21:00:00 1.3 2 Este 4 Sudeste 0 -- -- 68
2019-12-10 20:00:00 1.4 3 Este 8 Este 0 -- -- 64
2019-12-10 19:00:00 2.8 2 Sudeste 10 Sudoeste 0 -- -- 62
2019-12-10 18:00:00 6.1 3 Sur 10 Sur 0 -- -- 48
2019-12-10 17:00:00 12 11 Sudoeste 21 Nordeste 0 -- -- 33
2019-12-10 16:00:00 15.6 9 Nordeste 28 Nordeste 0 -- -- 15
2019-12-10 15:00:00 16.1 9 Este 32 Nordeste 0 -- -- 20
2019-12-10 14:00:00 16.1 14 Sudoeste 30 Norte 0 -- -- 22
2019-12-10 13:00:00 15.7 13 Este 44 Nordeste 0 -- -- 16
2019-12-10 12:00:00 14 20 Este 50 Nordeste 0 -- -- 21
2019-12-10 11:00:00 12.9 27 Este 55 Nordeste 0 -- -- 22
2019-12-10 10:00:00 11 19 Nordeste 44 Este 0 -- -- 23
2019-12-10 09:00:00 9.5 16 Nordeste 43 Norte 0 -- -- 21
2019-12-10 08:00:00 8.3 19 Nordeste 36 Este 0 -- -- 19
2019-12-10 07:00:00 7.1 20 Nordeste 45 Nordeste 0 -- -- 22
2019-12-10 06:00:00 6 22 Este 42 Este 0 -- -- 33
2019-12-10 05:00:00 5.8 18 Nordeste 40 Nordeste 0 -- -- 43
2019-12-10 04:00:00 5.9 18 Nordeste 42 Nordeste 0 -- -- 46
2019-12-10 03:00:00 5.6 12 Nordeste 36 Sudeste 0 -- -- 49
2019-12-10 02:00:00 5.6 16 Nordeste 43 Este 0 -- -- 51
2019-12-10 01:00:00 4.9 12 Norte 34 Noroeste 0 -- -- 54
2019-12-10 00:00:00 3 4 Norte 11 Este 0 -- -- 80
2019-12-09 23:00:00 3.5 4 Noroeste 18 Norte 0 -- -- 82
2019-12-09 22:00:00 4.2 5 Norte 17 Norte 0 -- -- 66
2019-12-09 21:00:00 4.1 4 Sur 24 Sur 0 -- -- 72
2019-12-09 20:00:00 3.7 6 Sudoeste 24 Sur 0 -- -- 74
2019-12-09 19:00:00 3.7 10 Oeste 36 Sudoeste 0.6 -- -- 82
2019-12-09 18:00:00 4.7 10 Oeste 33 Sudeste 0 -- -- 71
2019-12-09 17:00:00 5.6 10 Sudeste 36 Sudeste 0 -- -- 62
2019-12-09 16:00:00 7.2 8 Nordeste 39 Sudoeste 0 -- -- 54
2019-12-09 15:00:00 7.2 13 Nordeste 26 Nordeste 0 -- -- 58
2019-12-09 14:00:00 9.4 7 Este 27 Este 0 -- -- 42
2019-12-09 13:00:00 8.6 15 Este 28 Este 0 -- -- 56
2019-12-09 12:00:00 9 16 Nordeste 28 Nordeste 0 -- -- 56
2019-12-09 11:00:00 3.9 5 Este 12 Sudeste 0 -- -- 78
2019-12-09 10:00:00 0.9 4 Nordeste 19 Sur 0 -- -- 86
2019-12-09 09:00:00 1.2 15 Oeste 29 Sudoeste 0 -- -- 82
2019-12-09 08:00:00 -0.6 6 Sudoeste 18 Sudoeste 0 -- -- 76
2019-12-09 07:00:00 -1.8 4 Sur 14 Este 0 -- -- 72
2019-12-09 06:00:00 -1.6 5 Noroeste 13 Este 0 -- -- 68
2019-12-09 05:00:00 -1 5 Norte 10 Sur 0 -- -- 69
2019-12-09 04:00:00 -0.5 5 Norte 15 Sudeste 0 -- -- 67
2019-12-09 03:00:00 -0.2 3 Este 8 Sudeste 0 -- -- 78
2019-12-09 02:00:00 1.8 0 Calma 11 Sudeste 0 -- -- 76
2019-12-09 01:00:00 5.5 8 Sudoeste 29 Norte 0 -- -- 73
2019-12-09 00:00:00 11.2 18 Este 40 Nordeste 0 -- -- 15
2019-12-08 23:00:00 8.7 5 Este 24 Este 0 -- -- 50
2019-12-08 22:00:00 10.8 10 Nordeste 30 Norte 0 -- -- 36
2019-12-08 21:00:00 5.5 3 Este 9 Sur 0 -- -- 84
2019-12-08 20:00:00 5.2 3 Nordeste 10 Sudeste 0 -- -- 85
2019-12-08 19:00:00 5.5 2 Noroeste 7 Este 0 -- -- 83
2019-12-08 18:00:00 5.7 0 Calma 4 Este 0 -- -- 78
2019-12-08 17:00:00 7 0 Calma 6 Nordeste 0 -- -- 70
2019-12-08 16:00:00 10 0 Calma 5 Sur 0 -- -- 55
2019-12-08 15:00:00 12 2 Sur 7 Sudoeste 0 -- -- 49
2019-12-08 14:00:00 11.3 4 Sudeste 10 Sudoeste 0 -- -- 49
2019-12-08 13:00:00 8.9 2 Sur 6 Este 0 -- -- 56
2019-12-08 12:00:00 5.2 3 Sudeste 6 Sudoeste 0 -- -- 69
2019-12-08 11:00:00 -0.9 0 Calma 4 Sur 0 -- -- 100
2019-12-08 10:00:00 -3.2 2 Nordeste 5 Este 0 -- -- 100
2019-12-08 09:00:00 -3.9 0 Calma 5 Norte 0 -- -- 99
2019-12-08 08:00:00 -3.9 0 Calma 5 Sudeste 0 -- -- 98
2019-12-08 07:00:00 -3.5 2 Norte 5 Sudeste 0 -- -- 99
2019-12-08 06:00:00 -3.5 2 Sudoeste 4 Sudeste 0 -- -- 98
2019-12-08 05:00:00 -3.3 0 Calma 4 Noroeste 0 -- -- 97
2019-12-08 04:00:00 -2.8 0 Calma 3 Norte 0 -- -- 98
2019-12-08 03:00:00 -2.4 0 Calma 3 Este 0 -- -- 98
2019-12-08 02:00:00 -2.1 0 Calma 5 Este 0 -- -- 98
2019-12-08 01:00:00 -2 0 Calma 4 Sudeste 0 -- -- 98
2019-12-08 00:00:00 -1.7 0 Calma 4 Este 0 -- -- 98
2019-12-07 23:00:00 -1.3 0 Calma 3 Noroeste 0 -- -- 97
2019-12-07 22:00:00 -1 0 Calma 3 Este 0 -- -- 95
2019-12-07 21:00:00 -0.4 0 Calma 4 Este 0 -- -- 93
2019-12-07 20:00:00 0.8 0 Calma 4 Sudeste 0 -- -- 89
2019-12-07 19:00:00 2 0 Calma 4 Sudeste 0 -- -- 87
2019-12-07 18:00:00 4 0 Calma 3 Sudeste 0 -- -- 79
2019-12-07 17:00:00 7.2 0 Calma 5 Sudeste 0 -- -- 68
2019-12-07 16:00:00 11 2 Sur 12 Sudoeste 0 -- -- 55
2019-12-07 15:00:00 12.7 8 Sudoeste 15 Sudoeste 0 -- -- 51
2019-12-07 14:00:00 11.6 5 Sur 14 Sudoeste 0 -- -- 50
2019-12-07 13:00:00 9.4 3 Sur 5 Sudeste 0 -- -- 56
2019-12-07 12:00:00 5.2 2 Sur 5 Sudeste 0 -- -- 83
2019-12-07 11:00:00 -0.5 0 Calma 2 Sur 0 -- -- 100
2019-12-07 10:00:00 -3 0 Calma 3 Sudeste 0 -- -- 100
2019-12-07 09:00:00 -3.6 0 Calma 4 Sudeste 0 -- -- 99
2019-12-07 08:00:00 -3.6 0 Calma 5 Sudeste 0 -- -- 99
2019-12-07 07:00:00 -3.6 0 Calma 4 Sudeste 0 -- -- 98
2019-12-07 06:00:00 -3.3 0 Calma 5 Nordeste 0 -- -- 99
2019-12-07 05:00:00 -3.2 3 Nordeste 6 Nordeste 0 -- -- 98
2019-12-07 04:00:00 -2.7 0 Calma 9 Sudeste 0 -- -- 98
2019-12-07 03:00:00 -2.4 3 Oeste 5 Noroeste 0 -- -- 100
2019-12-07 02:00:00 -2.3 3 Este 5 Norte 0 -- -- 99
2019-12-07 01:00:00 -2 0 Calma 5 Norte 0 -- -- 98
2019-12-07 00:00:00 -1.6 3 Nordeste 8 Sudeste 0 -- -- 97
2019-12-06 23:00:00 -1 4 Nordeste 6 Sudeste 0 -- -- 98
2019-12-06 22:00:00 -0.7 0 Calma 5 Sudeste 0 -- -- 96
2019-12-06 21:00:00 0.2 0 Calma 4 Norte 0 -- -- 96
2019-12-06 20:00:00 0.9 0 Calma 3 Sudeste 0 -- -- 92
2019-12-06 19:00:00 2.2 2 Norte 4 Sudoeste 0 -- -- 91
2019-12-06 18:00:00 4.1 0 Calma 4 Sudeste 0 -- -- 83
2019-12-06 17:00:00 7.3 0 Calma 9 Sur 0 -- -- 73
2019-12-06 16:00:00 11.2 5 Sur 15 Sudoeste 0 -- -- 61
2019-12-06 15:00:00 12.5 6 Sudoeste 19 Sudoeste 0 -- -- 57
2019-12-06 14:00:00 11.8 10 Sudoeste 18 Sudoeste 0 -- -- 58
2019-12-06 13:00:00 9.5 2 Sur 6 Sur 0 -- -- 61
2019-12-06 12:00:00 5.7 0 Calma 4 Sudeste 0 -- -- 80
2019-12-06 11:00:00 0.4 0 Calma 5 Sudoeste 0 -- -- 100
2019-12-06 10:00:00 -2.2 0 Calma 4 Sudeste 0 -- -- 100
2019-12-06 09:00:00 -2.8 0 Calma 4 Sudeste 0 -- -- 100
2019-12-06 08:00:00 -3 0 Calma 3 Norte 0 -- -- 100
2019-12-06 07:00:00 -2.7 0 Calma 4 Norte 0 -- -- 100
2019-12-06 06:00:00 -2.4 0 Calma 3 Norte 0 -- -- 100
2019-12-06 05:00:00 -2.1 0 Calma 3 Norte 0 -- -- 100
2019-12-06 04:00:00 -1.9 0 Calma 5 Sudeste 0 -- -- 100
2019-12-06 03:00:00 -1.7 0 Calma 4 Sudeste 0 -- -- 99
2019-12-06 02:00:00 -1.4 0 Calma 4 Este 0 -- -- 99
2019-12-06 01:00:00 -1.2 0 Calma 5 Sudeste 0 -- -- 99
2019-12-06 00:00:00 -1 0 Calma 4 Este 0 -- -- 98
2019-12-05 23:00:00 -0.5 0 Calma 5 Nordeste 0 -- -- 97
2019-12-05 22:00:00 0.3 2 Nordeste 4 Sudeste 0 -- -- 97
2019-12-05 21:00:00 1 0 Calma 4 Norte 0 -- -- 93
2019-12-05 20:00:00 2.3 0 Calma 5 Sudeste 0 -- -- 91
2019-12-05 19:00:00 4.2 0 Calma 4 Sudeste 0 -- -- 84
2019-12-05 18:00:00 6.9 0 Calma 17 Oeste 0 -- -- 74
2019-12-05 17:00:00 9.2 8 Oeste 25 Oeste 0 -- -- 68
2019-12-05 16:00:00 10.9 13 Oeste 28 Oeste 0 -- -- 62
2019-12-05 15:00:00 10.8 9 Sudoeste 24 Sudoeste 0 -- -- 64
2019-12-05 14:00:00 10.7 18 Sudoeste 30 Sudoeste 0 -- -- 62
2019-12-05 13:00:00 10.1 16 Oeste 30 Oeste 0 -- -- 63
2019-12-05 12:00:00 8.1 13 Sudoeste 23 Sudoeste 0 -- -- 71
2019-12-05 11:00:00 5.8 2 Sudeste 7 Sudoeste 0 -- -- 84
2019-12-05 10:00:00 4.3 4 Este 6 Sudoeste 0 -- -- 90
2019-12-05 09:00:00 3.2 4 Este 9 Nordeste 0 -- -- 94
2019-12-05 08:00:00 2.9 4 Sudoeste 8 Nordeste 0 -- -- 94
2019-12-05 07:00:00 2.7 4 Norte 9 Noroeste 0 -- -- 94
2019-12-05 06:00:00 2.6 2 Sudeste 6 Sudeste 0 -- -- 94
2019-12-05 05:00:00 2.5 2 Sudeste 6 Sudeste 0 -- -- 93
2019-12-05 04:00:00 2.7 2 Nordeste 7 Noroeste 0 -- -- 93
2019-12-05 03:00:00 2.5 4 Nordeste 12 Sudeste 0 -- -- 93
2019-12-05 02:00:00 2.5 4 Norte 12 Sudeste 0 -- -- 92
2019-12-05 01:00:00 2.8 4 Noroeste 7 Sudeste 0 -- -- 91
2019-12-05 00:00:00 2.8 3 Noroeste 9 Nordeste 0 -- -- 91
2019-12-04 23:00:00 2.8 4 Nordeste 10 Sur 0 -- -- 89
2019-12-04 22:00:00 2.5 3 Sudoeste 11 Sudeste 0 -- -- 91
2019-12-04 21:00:00 3.2 3 Sudoeste 9 Noroeste 0 -- -- 89
2019-12-04 20:00:00 3.5 3 Oeste 13 Noroeste 0 -- -- 88
2019-12-04 19:00:00 3.7 4 Nordeste 9 Sur 0 -- -- 88
2019-12-04 18:00:00 3.9 2 Nordeste 8 Sudeste 0 -- -- 86
2019-12-04 17:00:00 5.2 3 Sur 9 Oeste 0 -- -- 80
2019-12-04 16:00:00 6.4 2 Sudoeste 9 Sudoeste 0 -- -- 75
2019-12-04 15:00:00 6.2 3 Oeste 5 Este 0 -- -- 73
2019-12-04 14:00:00 5.1 3 Nordeste 6 Noroeste 0 -- -- 77
2019-12-04 13:00:00 4.2 3 Este 21 Sudoeste 0 -- -- 81
2019-12-04 12:00:00 2.1 5 Oeste 10 Sur 0 -- -- 92
2019-12-04 11:00:00 1.1 2 Este 16 Sudoeste 0 -- -- 96
2019-12-04 10:00:00 -0.3 3 Sudeste 8 Sudeste 0 -- -- 100
2019-12-04 09:00:00 -1.9 2 Sudeste 10 Sudeste 0 -- -- 100
2019-12-04 08:00:00 -2.4 2 Norte 8 Sudeste 0 -- -- 99
2019-12-04 07:00:00 -2.1 0 Calma 10 Nordeste 0 -- -- 99
2019-12-04 06:00:00 -2.7 3 Norte 8 Sudeste 0 -- -- 99
2019-12-04 05:00:00 -2.4 2 Norte 4 Noroeste 0 -- -- 98
2019-12-04 04:00:00 -2.3 2 Sudoeste 5 Este 0 -- -- 96
2019-12-04 03:00:00 -1.9 0 Calma 5 Sudeste 0 -- -- 95
2019-12-04 02:00:00 -1.5 0 Calma 9 Este 0 -- -- 94
2019-12-04 01:00:00 -1.2 3 Norte 8 Sudeste 0 -- -- 92
2019-12-04 00:00:00 -1.5 4 Este 8 Norte 0 -- -- 95
2019-12-03 23:00:00 -2 0 Calma 6 Sudeste 0 -- -- 94
2019-12-03 22:00:00 -1.5 2 Nordeste 5 Sudeste 0 -- -- 92
2019-12-03 21:00:00 -1 2 Norte 6 Sudeste 0 -- -- 91
2019-12-03 20:00:00 -0.4 0 Calma 5 Noroeste 0 -- -- 89
2019-12-03 19:00:00 0.5 0 Calma 5 Noroeste 0 -- -- 84
2019-12-03 18:00:00 1.9 0 Calma 4 Sudeste 0 -- -- 76
2019-12-03 17:00:00 4.8 0 Calma 6 Sur 0 -- -- 64
2019-12-03 16:00:00 8.5 0 Calma 8 Sur 0 -- -- 52
2019-12-03 15:00:00 9.9 2 Sur 7 Sur 0 -- -- 48
2019-12-03 14:00:00 9.5 3 Sur 8 Sudeste 0 -- -- 43
2019-12-03 13:00:00 7.1 5 Sur 8 Sur 0 -- -- 47
2019-12-03 12:00:00 3.8 3 Sudeste 5 Sur 0 -- -- 68
2019-12-03 11:00:00 -1.3 0 Calma 5 Oeste 0 -- -- 100
2019-12-03 10:00:00 -4.9 0 Calma 6 Este 0 -- -- 97
2019-12-03 09:00:00 -5.3 0 Calma 4 Norte 0 -- -- 96
2019-12-03 08:00:00 -5.4 0 Calma 5 Sudeste 0 -- -- 95
2019-12-03 07:00:00 -5 0 Calma 5 Este 0 -- -- 97
2019-12-03 06:00:00 -4.8 0 Calma 4 Sudeste 0 -- -- 96
2019-12-03 05:00:00 -4.6 0 Calma 4 Norte 0 -- -- 96
2019-12-03 04:00:00 -4.2 0 Calma 6 Sudeste 0 -- -- 96
2019-12-03 03:00:00 -3.8 3 Oeste 6 Sudoeste 0 -- -- 95
2019-12-03 02:00:00 -3.4 0 Calma 7 Sudeste 0 -- -- 94
2019-12-03 01:00:00 -2.9 0 Calma 4 Sudeste 0 -- -- 95
2019-12-03 00:00:00 -2.5 0 Calma 4 Norte 0 -- -- 94
2019-12-02 23:00:00 -2.2 0 Calma 2 Norte 0 -- -- 93
2019-12-02 22:00:00 -1.7 0 Calma 9 Este 0 -- -- 92
2019-12-02 21:00:00 -1 2 Sur 4 Norte 0 -- -- 91
2019-12-02 20:00:00 -0.1 0 Calma 6 Oeste 0 -- -- 86
2019-12-02 19:00:00 1.1 2 Oeste 6 Sudeste 0 -- -- 83
2019-12-02 18:00:00 3.2 0 Calma 5 Sudoeste 0 -- -- 75
2019-12-02 17:00:00 7 2 Norte 15 Este 0 -- -- 55
2019-12-02 16:00:00 9.1 5 Sur 10 Sur 0 -- -- 56
2019-12-02 15:00:00 11.5 6 Sur 9 Sur 0 -- -- 49
2019-12-02 14:00:00 11.4 5 Sudoeste 14 Sudoeste 0 -- -- 47
2019-12-02 13:00:00 10.1 6 Sur 25 Este 0 -- -- 43
2019-12-02 12:00:00 7.2 4 Sur 10 Sudoeste 0 -- -- 60
2019-12-02 11:00:00 2.9 3 Este 8 Sudeste 0 -- -- 74
2019-12-02 10:00:00 0 2 Noroeste 6 Sudoeste 0 -- -- 84
2019-12-02 09:00:00 1.1 3 Sudoeste 19 Este 0 -- -- 78
2019-12-02 08:00:00 5.6 12 Nordeste 42 Nordeste 0 -- -- 54
2019-12-02 07:00:00 3.8 14 Nordeste 28 Nordeste 0 -- -- 63
2019-12-02 06:00:00 -2.3 4 Sudeste 9 Sudeste 0 -- -- 97
2019-12-02 05:00:00 -2.8 3 Norte 8 Sudeste 0 -- -- 98
2019-12-02 04:00:00 -2.5 3 Noroeste 8 Sudeste 0 -- -- 100
2019-12-02 03:00:00 -2.4 2 Sur 8 Sudeste 0 -- -- 99
2019-12-02 02:00:00 -2.4 2 Este 6 Noroeste 0 -- -- 100
2019-12-02 01:00:00 -2 0 Calma 4 Nordeste 0 -- -- 99
2019-12-02 00:00:00 -1.8 0 Calma 5 Sudeste 0 -- -- 99
2019-12-01 23:00:00 -1.3 2 Este 4 Sudeste 0 -- -- 98
2019-12-01 22:00:00 -0.8 0 Calma 6 Sudeste 0 -- -- 98
2019-12-01 21:00:00 -0.4 0 Calma 7 Sudeste 0 -- -- 96
2019-12-01 20:00:00 0.5 2 Norte 5 Sudeste 0 -- -- 95
2019-12-01 19:00:00 1.6 2 Este 8 Sudeste 0 -- -- 91
2019-12-01 18:00:00 3.7 0 Calma 8 Nordeste 0 -- -- 86
2019-12-01 17:00:00 6.6 2 Sur 6 Sur 0 -- -- 77
2019-12-01 16:00:00 9.8 2 Sur 9 Sur 0 -- -- 64
2019-12-01 15:00:00 10.5 5 Sur 10 Sudoeste 0 -- -- 65
2019-12-01 14:00:00 10.1 5 Sur 14 Sudoeste 0 -- -- 65
2019-12-01 13:00:00 8.4 8 Sudoeste 14 Sudoeste 0 -- -- 72
2019-12-01 12:00:00 7 3 Sur 6 Sur 0 -- -- 78
2019-12-01 11:00:00 3.4 2 Sur 4 Sur 0 -- -- 100
2019-12-01 10:00:00 0.6 0 Calma 4 Sudeste 0 -- -- 100
2019-12-01 09:00:00 1.4 2 Sudoeste 9 Sudoeste 0 -- -- 100
2019-12-01 08:00:00 2.1 0 Calma 3 Sudeste 0 -- -- 100
2019-12-01 07:00:00 1.8 0 Calma 3 Sudeste 0 -- -- 100
2019-12-01 06:00:00 1.8 0 Calma 6 Nordeste 0 -- -- 97
2019-12-01 05:00:00 3.2 4 Sudeste 9 Norte 0 -- -- 96
2019-12-01 04:00:00 4.7 3 Noroeste 11 Nordeste 0.2 -- -- 94
2019-12-01 03:00:00 5.3 5 Norte 13 Noroeste 1.8 -- -- 90
2019-12-01 02:00:00 6.2 4 Sudoeste 21 Sudoeste 0.6 -- -- 92
2019-12-01 01:00:00 7.3 11 Sudoeste 28 Sur 0.8 -- -- 86
2019-12-01 00:00:00 7.9 5 Oeste 30 Oeste 1.8 -- -- 95
2019-11-30 23:00:00 8.7 14 Oeste 26 Oeste 5.4 -- -- 92
2019-11-30 22:00:00 8.5 10 Oeste 20 Sudoeste 4.4 -- -- 96
2019-11-30 21:00:00 6.9 2 Este 9 Sur 3.6 -- -- 100
2019-11-30 20:00:00 7 3 Oeste 7 Sudoeste 0.8 -- -- 98
2019-11-30 19:00:00 7.3 0 Calma 6 Sudeste 0.2 -- -- 94
2019-11-30 18:00:00 8.1 3 Oeste 7 Oeste 0 -- -- 88
2019-11-30 17:00:00 9.1 5 Oeste 8 Sudoeste 0 -- -- 76
2019-11-30 16:00:00 9.8 7 Oeste 21 Oeste 0 -- -- 71
2019-11-30 15:00:00 10.3 14 Oeste 24 Sudoeste 0 -- -- 61
2019-11-30 14:00:00 9.8 6 Sudoeste 14 Sudoeste 0 -- -- 61
2019-11-30 13:00:00 9.6 2 Este 5 Este 0 -- -- 52
2019-11-30 12:00:00 7.4 2 Sur 6 Sur 0 -- -- 63
2019-11-30 11:00:00 4.1 3 Sudoeste 5 Sudeste 0 -- -- 85
2019-11-30 10:00:00 1.1 0 Calma 6 Sur 0 -- -- 100
2019-11-30 09:00:00 -0.3 0 Calma 8 Sur 0 -- -- 100
2019-11-30 08:00:00 -0.9 0 Calma 6 Sudeste 0 -- -- 99
2019-11-30 07:00:00 -1.3 0 Calma 6 Sudeste 0 -- -- 100
2019-11-30 06:00:00 -1.9 0 Calma 4 Este 0 -- -- 99
2019-11-30 05:00:00 -1.6 2 Nordeste 5 Norte 0 -- -- 99
2019-11-30 04:00:00 -1.3 2 Este 4 Norte 0 -- -- 99
2019-11-30 03:00:00 -0.9 0 Calma 5 Norte 0 -- -- 99
2019-11-30 02:00:00 -0.2 0 Calma 4 Sudeste 0 -- -- 99
2019-11-30 01:00:00 0.1 2 Este 6 Este 0 -- -- 100
2019-11-30 00:00:00 0.3 2 Este 5 Norte 0 -- -- 98
2019-11-29 23:00:00 0.8 0 Calma 5 Norte 0 -- -- 98
2019-11-29 22:00:00 1.5 2 Este 4 Sudeste 0 -- -- 96
2019-11-29 21:00:00 2.5 2 Nordeste 6 Sudeste 0 -- -- 93
2019-11-29 20:00:00 3.9 0 Calma 4 Sudeste 0 -- -- 93
2019-11-29 19:00:00 5.4 0 Calma 3 Sudeste 0 -- -- 91
2019-11-29 18:00:00 6.8 0 Calma 6 Noroeste 0 -- -- 86
2019-11-29 17:00:00 9.4 0 Calma 5 Noroeste 0 -- -- 75
2019-11-29 16:00:00 13.8 7 Sudoeste 21 Sudoeste 0 -- -- 66
2019-11-29 15:00:00 13.9 11 Sudoeste 19 Oeste 0 -- -- 60
2019-11-29 14:00:00 12.9 3 Sur 16 Sur 0 -- -- 60
2019-11-29 13:00:00 11.2 6 Sur 11 Sur 0 -- -- 68
2019-11-29 12:00:00 8.8 3 Sur 8 Sudeste 0 -- -- 85
2019-11-29 11:00:00 4.6 3 Sur 6 Sudeste 0 -- -- 100
2019-11-29 10:00:00 0.9 2 Norte 4 Sudeste 0 -- -- 100
2019-11-29 09:00:00 1.1 0 Calma 4 Sudeste 0 -- -- 100
2019-11-29 08:00:00 1.4 0 Calma 5 Sur 0 -- -- 100
2019-11-29 07:00:00 1.9 0 Calma 5 Sudeste 0 -- -- 100
2019-11-29 06:00:00 1.6 0 Calma 6 Sudeste 0 -- -- 100
2019-11-29 05:00:00 1.9 0 Calma 5 Este 0 -- -- 100
2019-11-29 04:00:00 2.7 0 Calma 3 Norte 0 -- -- 100
2019-11-29 03:00:00 4 0 Calma 4 Sudeste 0 -- -- 99
2019-11-29 02:00:00 5.5 0 Calma 5 Sudeste 0 -- -- 100
2019-11-29 01:00:00 6.3 3 Sudoeste 9 Este 0 -- -- 100
2019-11-29 00:00:00 6.5 0 Calma 6 Sudeste 0 -- -- 99
2019-11-28 23:00:00 6.8 0 Calma 5 Sudoeste 0.2 -- -- 98
2019-11-28 22:00:00 7.3 2 Este 14 Oeste 0 -- -- 95
2019-11-28 21:00:00 7.8 10 Oeste 22 Oeste 0.2 -- -- 94
2019-11-28 20:00:00 7.7 8 Oeste 18 Oeste 2.6 -- -- 96
2019-11-28 19:00:00 7.6 3 Oeste 12 Oeste 1 -- -- 94
2019-11-28 18:00:00 8.3 4 Oeste 6 Oeste 0.4 -- -- 89
2019-11-28 17:00:00 9.8 5 Oeste 15 Sudoeste 0 -- -- 73
2019-11-28 16:00:00 10.2 8 Sudoeste 19 Sudoeste 0 -- -- 70
2019-11-28 15:00:00 11 10 Sudoeste 19 Sudoeste 0 -- -- 65
2019-11-28 14:00:00 11 5 Sur 23 Sudoeste 0 -- -- 63
2019-11-28 13:00:00 10.1 12 Sudoeste 20 Oeste 0 -- -- 65
2019-11-28 12:00:00 9.1 7 Sudoeste 13 Sudoeste 0 -- -- 75
2019-11-28 11:00:00 6.4 0 Calma 8 Sudoeste 0 -- -- 87
2019-11-28 10:00:00 2.8 3 Sudoeste 6 Sudeste 0 -- -- 100
2019-11-28 09:00:00 1.2 0 Calma 5 Este 0 -- -- 100
2019-11-28 08:00:00 1 0 Calma 6 Sudeste 0 -- -- 100
2019-11-28 07:00:00 2.1 2 Noroeste 5 Sudeste 0 -- -- 100
2019-11-28 06:00:00 2.3 3 Norte 4 Este 0 -- -- 100
2019-11-28 05:00:00 3.2 4 Noroeste 6 Sudeste 0 -- -- 100
2019-11-28 04:00:00 3.9 3 Sudeste 6 Sudeste 0 -- -- 100
2019-11-28 03:00:00 4.3 0 Calma 5 Sudeste 0 -- -- 100
2019-11-28 02:00:00 4.3 0 Calma 3 Este 0 -- -- 100
2019-11-28 01:00:00 4.5 2 Sudoeste 5 Sudeste 0.2 -- -- 99
2019-11-28 00:00:00 4.7 0 Calma 3 Sudeste 0 -- -- 97
2019-11-27 23:00:00 4.9 0 Calma 5 Sudoeste 0 -- -- 97
2019-11-27 22:00:00 4.8 0 Calma 5 Sudeste 0 -- -- 96
2019-11-27 21:00:00 5.2 0 Calma 5 Sudeste 0 -- -- 92
2019-11-27 20:00:00 6 0 Calma 4 Sudoeste 0 -- -- 89
2019-11-27 19:00:00 6.7 0 Calma 12 Sudoeste 0 -- -- 85
2019-11-27 18:00:00 7.8 6 Oeste 13 Sudoeste 0 -- -- 75
2019-11-27 17:00:00 8.8 5 Sudoeste 19 Sudoeste 0 -- -- 74
2019-11-27 16:00:00 9.5 9 Sudoeste 21 Sudoeste 0 -- -- 69
2019-11-27 15:00:00 10.2 13 Sudoeste 22 Sudoeste 0 -- -- 68
2019-11-27 14:00:00 11 10 Oeste 23 Sudoeste 0 -- -- 63
2019-11-27 06:00:00 -- -- -- -- -- -- -- -- --
2019-11-27 05:00:00 8.1 9 Oeste 21 Oeste 0.2 -- -- 96
2019-11-27 04:00:00 8.4 5 Oeste 19 Oeste 2.4 -- -- 98
2019-11-27 03:00:00 8.2 9 Oeste 17 Oeste 2.8 -- -- 100
2019-11-27 02:00:00 8.3 4 Sur 23 Oeste 5.4 -- -- 99
2019-11-27 01:00:00 8.5 10 Oeste 21 Oeste 0.4 -- -- 100
2019-11-27 00:00:00 7.5 4 Sur 14 Sur 0.2 -- -- 100
2019-11-26 23:00:00 6.7 3 Oeste 8 Sudoeste 0 -- -- 100
2019-11-26 22:00:00 6.3 2 Nordeste 8 Oeste 0.8 -- -- 96
2019-11-26 21:00:00 6.6 3 Sudeste 10 Oeste 0.4 -- -- 90
2019-11-26 20:00:00 5.7 2 Nordeste 6 Este 0 -- -- 86
2019-11-26 19:00:00 5.2 3 Sudoeste 8 Noroeste 0 -- -- 87
2019-11-26 18:00:00 7 0 Calma 9 Sudoeste 0 -- -- 80
2019-11-26 17:00:00 10 3 Oeste 15 Sudoeste 0 -- -- 70
2019-11-26 16:00:00 11.6 9 Sudoeste 17 Sudoeste 0 -- -- 64
2019-11-26 15:00:00 11.9 0 Calma 14 Sudoeste 0 -- -- 52
2019-11-26 14:00:00 12.1 4 Oeste 22 Sudoeste 0 -- -- 52
2019-11-26 13:00:00 11.5 3 Sudeste 6 Sur 0 -- -- 49
2019-11-26 12:00:00 8.1 3 Sudeste 5 Sudeste 0 -- -- 60
2019-11-26 11:00:00 3.9 2 Sur 6 Sur 0 -- -- 89
2019-11-26 10:00:00 -0.8 4 Sudoeste 6 Sur 0 -- -- 100
2019-11-26 09:00:00 -1.3 2 Este 6 Sudoeste 0 -- -- 100
2019-11-26 08:00:00 -2.1 0 Calma 5 Sudeste 0 -- -- 99
2019-11-26 07:00:00 -1.5 3 Oeste 12 Este 0 -- -- 100
2019-11-26 06:00:00 -2.1 0 Calma 5 Sudeste 0 -- -- 100
2019-11-26 05:00:00 -1.7 0 Calma 6 Sudeste 0 -- -- 100
2019-11-26 04:00:00 -1.7 2 Oeste 8 Sudoeste 0 -- -- 99
2019-11-26 03:00:00 -1.5 0 Calma 6 Sudeste 0 -- -- 99
2019-11-26 02:00:00 -1.3 2 Noroeste 4 Oeste 0 -- -- 99
2019-11-26 01:00:00 -1.1 0 Calma 4 Sudeste 0 -- -- 98
2019-11-26 00:00:00 -0.5 0 Calma 3 Sudeste 0 -- -- 97
2019-11-25 23:00:00 0 0 Calma 3 Sudeste 0 -- -- 96
2019-11-25 22:00:00 0.6 0 Calma 3 Este 0 -- -- 94
2019-11-25 21:00:00 1.5 0 Calma 2 Nordeste 0 -- -- 93
2019-11-25 20:00:00 2.5 0 Calma 3 Sudeste 0 -- -- 90
2019-11-25 19:00:00 4 0 Calma 4 Sudeste 0 -- -- 85
2019-11-25 18:00:00 6 0 Calma 3 Sudeste 0 -- -- 78
2019-11-25 17:00:00 9.7 0 Calma 5 Sur 0 -- -- 66
2019-11-25 16:00:00 11.8 2 Sur 12 Oeste 0 -- -- 60
2019-11-25 15:00:00 14.4 5 Sur 14 Sudoeste 0 -- -- 51
2019-11-25 14:00:00 12.9 9 Sudoeste 23 Sudoeste 0 -- -- 50
2019-11-25 13:00:00 10.8 8 Sudoeste 17 Sudoeste 0 -- -- 54
2019-11-25 12:00:00 7.6 4 Sur 8 Sur 0 -- -- 67
2019-11-25 11:00:00 2.9 2 Sur 7 Sudeste 0 -- -- 84
2019-11-25 10:00:00 -1.7 2 Sur 5 Norte 0 -- -- 98
2019-11-25 09:00:00 -2.5 2 Sur 5 Sudoeste 0 -- -- 98
2019-11-25 08:00:00 -2.9 2 Sur 5 Este 0 -- -- 96
2019-11-25 07:00:00 -2.6 2 Sudoeste 5 Sudeste 0 -- -- 95
2019-11-25 06:00:00 -2.3 0 Calma 5 Sudeste 0 -- -- 93
2019-11-25 05:00:00 -1.6 0 Calma 9 Sudoeste 0 -- -- 92
2019-11-25 04:00:00 -1.3 4 Este 8 Norte 0 -- -- 91
2019-11-25 03:00:00 -0.9 3 Norte 7 Sudeste 0 -- -- 90
2019-11-25 02:00:00 -0.2 3 Este 6 Noroeste 0 -- -- 86
2019-11-25 01:00:00 0.7 3 Sudoeste 10 Nordeste 0 -- -- 85
2019-11-25 00:00:00 0 4 Sur 8 Sur 0 -- -- 89
2019-11-24 23:00:00 -0.4 2 Este 7 Sudeste 0 -- -- 90
2019-11-24 22:00:00 -0.2 0 Calma 4 Noroeste 0 -- -- 89
2019-11-24 21:00:00 1.1 3 Nordeste 8 Sudeste 0 -- -- 83
2019-11-24 20:00:00 2 3 Este 5 Sudeste 0 -- -- 83
2019-11-24 19:00:00 2.5 2 Oeste 4 Sudoeste 0 -- -- 80
2019-11-24 18:00:00 5 0 Calma 8 Oeste 0 -- -- 69
2019-11-24 17:00:00 8.6 6 Sudoeste 19 Nordeste 0 -- -- 56
2019-11-24 16:00:00 10.5 12 Este 29 Nordeste 0 -- -- 41
2019-11-24 15:00:00 10.3 16 Nordeste 42 Nordeste 0 -- -- 41
2019-11-24 14:00:00 10.6 18 Este 40 Nordeste 0 -- -- 43
2019-11-24 13:00:00 10.7 19 Este 41 Este 0 -- -- 44
2019-11-24 12:00:00 10.2 17 Este 34 Nordeste 0 -- -- 42
2019-11-24 11:00:00 9.5 13 Este 28 Este 0 -- -- 43
2019-11-24 10:00:00 6.1 9 Este 20 Nordeste 0 -- -- 54
2019-11-24 09:00:00 4.7 2 Sur 19 Este 0 -- -- 64
2019-11-24 08:00:00 5.7 5 Norte 30 Norte 0 -- -- 54
2019-11-24 07:00:00 4.8 6 Noroeste 18 Nordeste 0 -- -- 54
2019-11-24 06:00:00 3 5 Este 15 Norte 0 -- -- 68
2019-11-24 05:00:00 2.5 6 Norte 15 Nordeste 0 -- -- 68
2019-11-24 04:00:00 2.5 2 Este 13 Nordeste 0 -- -- 80
2019-11-24 03:00:00 3.7 4 Este 23 Norte 0 -- -- 72
2019-11-24 02:00:00 5.3 3 Este 20 Norte 0 -- -- 61
2019-11-24 01:00:00 3.8 4 Este 16 Oeste 0 -- -- 70
2019-11-24 00:00:00 2.8 6 Este 18 Norte 0 -- -- 70
2019-11-23 23:00:00 5.1 8 Nordeste 21 Norte 0 -- -- 47
2019-11-23 22:00:00 5.9 10 Norte 30 Norte 0 -- -- 48
2019-11-23 21:00:00 5.7 7 Norte 31 Este 0 -- -- 51
2019-11-23 20:00:00 5.6 11 Este 33 Este 0 -- -- 53
2019-11-23 19:00:00 3.2 2 Noroeste 13 Noroeste 0 -- -- 90
2019-11-23 18:00:00 4.5 2 Oeste 5 Este 0 -- -- 95
2019-11-23 17:00:00 5.4 2 Oeste 15 Oeste 0 -- -- 92
2019-11-23 16:00:00 5.9 7 Oeste 18 Oeste 0.2 -- -- 92
2019-11-23 15:00:00 6.5 0 Calma 11 Este 0.2 -- -- 84
2019-11-23 14:00:00 6.6 7 Nordeste 14 Nordeste 0.4 -- -- 85
2019-11-23 13:00:00 7.5 6 Sudoeste 12 Oeste 0.2 -- -- 83
2019-11-23 12:00:00 7 3 Sudeste 12 Oeste 0 -- -- 89
2019-11-23 11:00:00 5.7 6 Oeste 12 Sudoeste 0 -- -- 95
2019-11-23 10:00:00 4.9 2 Sur 6 Nordeste 0 -- -- 100
2019-11-23 09:00:00 3.7 0 Calma 4 Nordeste 0.2 -- -- 100
2019-11-23 08:00:00 3.3 2 Sudoeste 7 Norte 0 -- -- 100
2019-11-23 07:00:00 3.3 2 Sudeste 6 Sur 0 -- -- 100
2019-11-23 06:00:00 3.4 2 Nordeste 5 Este 1.4 -- -- 100
2019-11-23 05:00:00 3.3 0 Calma 3 Sur 0 -- -- 100
2019-11-23 04:00:00 3.8 2 Norte 5 Sur 0.2 -- -- 99
2019-11-23 03:00:00 4.5 4 Nordeste 10 Noroeste 0 -- -- 97
2019-11-23 02:00:00 5.3 3 Nordeste 35 Sudoeste 2.8 -- -- 94
2019-11-23 01:00:00 6.6 17 Sudoeste 37 Sudoeste 1.4 -- -- 100
2019-11-23 00:00:00 3.3 5 Norte 10 Sudeste 1.2 -- -- 100
2019-11-22 23:00:00 3 4 Sudoeste 9 Norte 2.2 -- -- 100
2019-11-22 22:00:00 3 2 Oeste 9 Este 2.4 -- -- 98
2019-11-22 21:00:00 3.4 6 Nordeste 14 Este 3.4 -- -- 96
2019-11-22 20:00:00 4.2 3 Noroeste 6 Nordeste 4.2 -- -- 99
2019-11-22 19:00:00 4.5 2 Sudoeste 14 Sudoeste 2.4 -- -- 97
2019-11-22 18:00:00 4.8 12 Sudoeste 22 Oeste 1.8 -- -- 96
2019-11-22 17:00:00 5 10 Oeste 25 Oeste 1.2 -- -- 94
2019-11-22 16:00:00 5.8 15 Oeste 30 Noroeste 1 -- -- 83
2019-11-22 15:00:00 5.9 16 Oeste 31 Oeste 0.6 -- -- 82
2019-11-22 14:00:00 5.9 18 Oeste 30 Oeste 0.2 -- -- 80
2019-11-22 13:00:00 5.2 13 Sudoeste 20 Sudoeste 0 -- -- 86
2019-11-22 12:00:00 4.3 2 Este 5 Nordeste 0 -- -- 84
2019-11-22 11:00:00 3.2 0 Calma 8 Oeste 0 -- -- 88
2019-11-22 10:00:00 1.9 2 Nordeste 7 Sudoeste 0 -- -- 97
2019-11-22 09:00:00 0.8 0 Calma 5 Este 0 -- -- 99
2019-11-22 08:00:00 0.3 2 Este 6 Sur 0 -- -- 99
2019-11-22 07:00:00 0.2 3 Norte 6 Sudeste 0 -- -- 99
2019-11-22 06:00:00 0 0 Calma 5 Sur 0 -- -- 99
2019-11-22 05:00:00 -0.1 0 Calma 6 Sudeste 0 -- -- 99
2019-11-22 04:00:00 -0.3 0 Calma 6 Sudeste 0 -- -- 97
2019-11-22 03:00:00 0 0 Calma 3 Sudeste 0 -- -- 97
2019-11-22 02:00:00 0.4 0 Calma 5 Sur 0 -- -- 96
2019-11-22 01:00:00 0.5 3 Este 6 Este 0 -- -- 95
2019-11-22 00:00:00 0.4 2 Este 8 Este 0 -- -- 94
2019-11-21 23:00:00 0 3 Norte 8 Sur 0 -- -- 95
2019-11-21 22:00:00 -0.4 0 Calma 5 Sudeste 0 -- -- 95
2019-11-21 21:00:00 -0.4 2 Sudeste 5 Noroeste 0 -- -- 93
2019-11-21 20:00:00 -0.3 3 Sudeste 6 Sudeste 0 -- -- 89
2019-11-21 19:00:00 1 0 Calma 5 Este 0 -- -- 85
2019-11-21 18:00:00 2.3 0 Calma 7 Sudoeste 0 -- -- 82
2019-11-21 17:00:00 4.5 0 Calma 4 Sudeste 0 -- -- 74
2019-11-21 16:00:00 6.7 4 Sudoeste 23 Sudoeste 0 -- -- 65
2019-11-21 15:00:00 7 15 Sudoeste 24 Sudoeste 0 -- -- 61
2019-11-21 14:00:00 9.6 15 Sudoeste 25 Sudoeste 0 -- -- 53
2019-11-21 13:00:00 7.8 10 Oeste 20 Sudoeste 0 -- -- 57
2019-11-21 12:00:00 5.8 3 Sur 9 Oeste 0 -- -- 61
2019-11-21 11:00:00 3 3 Sudoeste 15 Sur 0 -- -- 66
2019-11-21 10:00:00 -0.9 2 Sudeste 6 Sudoeste 0 -- -- 85
2019-11-21 09:00:00 -1.4 0 Calma 4 Noroeste 0 -- -- 88
2019-11-21 08:00:00 -1.8 0 Calma 5 Noroeste 0 -- -- 88
2019-11-21 07:00:00 -1.8 2 Norte 5 Sudeste 0 -- -- 88
2019-11-21 06:00:00 -2.3 0 Calma 3 Este 0 -- -- 90
2019-11-21 05:00:00 -2.7 0 Calma 5 Norte 0 -- -- 86
2019-11-21 04:00:00 -2.3 0 Calma 6 Sudeste 0 -- -- 85
2019-11-21 03:00:00 -2 2 Nordeste 6 Nordeste 0 -- -- 84
2019-11-21 02:00:00 -3 3 Nordeste 7 Sur 0 -- -- 93
2019-11-21 01:00:00 -4 0 Calma 6 Sur 0 -- -- 94
2019-11-21 00:00:00 -4 0 Calma 2 Sudeste 0 -- -- 93
2019-11-20 23:00:00 -3.5 0 Calma 4 Sudeste 0 -- -- 93
2019-11-20 22:00:00 -3.1 2 Norte 5 Sudeste 0 -- -- 91
2019-11-20 21:00:00 -2.3 0 Calma 4 Sudeste 0 -- -- 88
2019-11-20 20:00:00 -1.5 0 Calma 3 Sudeste 0 -- -- 86
2019-11-20 19:00:00 -0.3 0 Calma 3 Sudoeste 0 -- -- 81
2019-11-20 18:00:00 1.4 0 Calma 8 Sudoeste 0 -- -- 74
2019-11-20 17:00:00 3.3 0 Calma 6 Sur 0 -- -- 65
2019-11-20 16:00:00 6.4 3 Sudeste 8 Sudeste 0 -- -- 55
2019-11-20 15:00:00 8.7 3 Nordeste 8 Sudeste 0 -- -- 33
2019-11-20 14:00:00 7.2 5 Sur 11 Sudoeste 0 -- -- 42
2019-11-20 13:00:00 5.5 4 Sur 10 Sudoeste 0 -- -- 50
2019-11-20 12:00:00 3 3 Sur 14 Sudoeste 0 -- -- 59
2019-11-20 11:00:00 0.8 3 Sur 6 Sudoeste 0 -- -- 73
2019-11-20 10:00:00 -4.4 0 Calma 2 Noroeste 0 -- -- 96
2019-11-20 09:00:00 -5.9 0 Calma 4 Sur 0 -- -- 96
2019-11-20 08:00:00 -6.7 0 Calma 3 Norte 0 -- -- 95
2019-11-20 07:00:00 -6.4 0 Calma 5 Este 0 -- -- 94
2019-11-20 06:00:00 -6.2 2 Nordeste 5 Este 0 -- -- 95
2019-11-20 05:00:00 -6.2 0 Calma 3 Sudeste 0 -- -- 95
2019-11-20 04:00:00 -6 0 Calma 3 Nordeste 0 -- -- 94
2019-11-20 03:00:00 -5.5 0 Calma 6 Sudoeste 0 -- -- 94
2019-11-20 02:00:00 -5.3 2 Nordeste 4 Este 0 -- -- 93
2019-11-20 01:00:00 -5.1 0 Calma 3 Este 0 -- -- 92
2019-11-20 00:00:00 -4.7 0 Calma 4 Norte 0 -- -- 91
2019-11-19 23:00:00 -3.9 0 Calma 4 Este 0 -- -- 90
2019-11-19 22:00:00 -3.5 2 Nordeste 8 Oeste 0 -- -- 89
2019-11-19 21:00:00 -2.9 2 Noroeste 5 Sudeste 0 -- -- 86
2019-11-19 20:00:00 -2.2 0 Calma 5 Norte 0 -- -- 85
2019-11-19 19:00:00 -1.1 0 Calma 3 Sudeste 0 -- -- 81
2019-11-19 18:00:00 0.9 0 Calma 4 Sudeste 0 -- -- 73
2019-11-19 17:00:00 4.4 0 Calma 6 Sur 0 -- -- 59
2019-11-19 16:00:00 8.7 3 Sur 9 Sur 0 -- -- 44
2019-11-19 15:00:00 10 4 Sur 19 Sudoeste 0 -- -- 39
2019-11-19 14:00:00 10.1 10 Sudoeste 23 Oeste 0 -- -- 30
2019-11-19 13:00:00 8.3 14 Oeste 23 Sudoeste 0 -- -- 30
2019-11-19 12:00:00 6.1 7 Sudoeste 20 Sudoeste 0 -- -- 39
2019-11-19 11:00:00 1.8 0 Calma 9 Sudoeste 0 -- -- 67
2019-11-19 10:00:00 -4.6 0 Calma 5 Sudeste 0 -- -- 92
2019-11-19 09:00:00 -6 0 Calma 6 Sudeste 0 -- -- 91
2019-11-19 08:00:00 -6.1 3 Este 9 Sudeste 0 -- -- 89
2019-11-19 07:00:00 -5.9 4 Norte 6 Norte 0 -- -- 90
2019-11-19 06:00:00 -6 0 Calma 5 Noroeste 0 -- -- 90
2019-11-19 05:00:00 -5.6 0 Calma 8 Norte 0 -- -- 88
2019-11-19 04:00:00 -5.4 0 Calma 6 Este 0 -- -- 88
2019-11-19 03:00:00 -4.9 0 Calma 8 Sudeste 0 -- -- 86
2019-11-19 02:00:00 -4.2 0 Calma 5 Sudoeste 0 -- -- 83
2019-11-19 01:00:00 -3.3 2 Sudeste 8 Noroeste 0 -- -- 76
2019-11-19 00:00:00 -2.1 0 Calma 8 Sudoeste 0 -- -- 72
2019-11-18 23:00:00 0.7 2 Nordeste 19 Este 0 -- -- 55
2019-11-18 22:00:00 1.9 5 Nordeste 21 Este 0 -- -- 45
2019-11-18 21:00:00 0.6 5 Nordeste 14 Norte 0 -- -- 51
2019-11-18 20:00:00 -0.1 0 Calma 15 Este 0 -- -- 65
2019-11-18 19:00:00 2.3 3 Sudoeste 28 Este 0 -- -- 49
2019-11-18 18:00:00 2.6 8 Este 22 Este 0 -- -- 46
2019-11-18 17:00:00 4.7 0 Calma 20 Este 0 -- -- 47
2019-11-18 16:00:00 7 12 Este 30 Este 0 -- -- 33
2019-11-18 15:00:00 8.6 13 Este 30 Este 0 -- -- 35
2019-11-18 14:00:00 8.5 12 Este 25 Nordeste 0 -- -- 42
2019-11-18 13:00:00 7.5 16 Nordeste 34 Este 0 -- -- 45
2019-11-18 12:00:00 7 17 Nordeste 35 Nordeste 0 -- -- 47
2019-11-18 11:00:00 5.6 13 Este 34 Nordeste 0 -- -- 54
2019-11-18 10:00:00 2.6 10 Este 23 Nordeste 0 -- -- 74
2019-11-18 09:00:00 -1.8 3 Sur 9 Sudoeste 0 -- -- 99
2019-11-18 08:00:00 -2.2 2 Este 12 Sudeste 0 -- -- 99
2019-11-18 07:00:00 -2.3 2 Norte 6 Sur 0 -- -- 100
2019-11-18 06:00:00 -2.7 2 Este 7 Sudeste 0 -- -- 99
2019-11-18 05:00:00 -2.7 0 Calma 5 Sudeste 0 -- -- 99
2019-11-18 04:00:00 -2.3 3 Norte 5 Sudeste 0 -- -- 99
2019-11-18 03:00:00 -2.5 0 Calma 5 Nordeste 0 -- -- 99
2019-11-18 02:00:00 -2.6 0 Calma 3 Norte 0 -- -- 98
2019-11-18 01:00:00 -2.1 0 Calma 9 Sudeste 0 -- -- 97
2019-11-18 00:00:00 -1.4 2 Norte 4 Este 0 -- -- 96
2019-11-17 23:00:00 -0.4 2 Nordeste 9 Sudoeste 0 -- -- 97
2019-11-17 22:00:00 0.7 2 Sudeste 4 Sudeste 0 -- -- 95
2019-11-17 21:00:00 1.1 0 Calma 4 Sudeste 0 -- -- 95
2019-11-17 20:00:00 1 0 Calma 4 Sudeste 0 -- -- 95
2019-11-17 19:00:00 0.8 0 Calma 3 Sudeste 0 -- -- 93
2019-11-17 18:00:00 1.7 0 Calma 5 Este 0 -- -- 86
2019-11-17 17:00:00 4.5 3 Sudeste 21 Oeste 0 -- -- 75
2019-11-17 16:00:00 6.1 13 Oeste 20 Oeste 0 -- -- 66
2019-11-17 15:00:00 8.2 3 Sur 9 Sudeste 0 -- -- 60
2019-11-17 14:00:00 6 7 Sudoeste 12 Sudoeste 0 -- -- 66
2019-11-17 13:00:00 5.2 2 Este 12 Sudoeste 0 -- -- 65
2019-11-17 12:00:00 2.5 4 Sudeste 8 Sudoeste 0 -- -- 77
2019-11-17 11:00:00 1.6 3 Sudeste 5 Sudeste 0 -- -- 84
2019-11-17 10:00:00 -2.8 0 Calma 5 Oeste 0 -- -- 100
2019-11-17 09:00:00 -3.4 0 Calma 14 Sudoeste 0 -- -- 96
2019-11-17 08:00:00 -3.1 0 Calma 7 Sudoeste 0 -- -- 97
2019-11-17 07:00:00 -2.9 2 Noroeste 6 Sudoeste 0 -- -- 98
2019-11-17 06:00:00 -3 4 Sudoeste 11 Sudoeste 0 -- -- 98
2019-11-17 05:00:00 -3.3 0 Calma 10 Norte 0 -- -- 99
2019-11-17 04:00:00 -4.2 5 Sudoeste 13 Sudoeste 0 -- -- 99
2019-11-17 03:00:00 -4.6 0 Calma 6 Sur 0 -- -- 97
2019-11-17 02:00:00 -4.3 2 Norte 6 Norte 0 -- -- 97
2019-11-17 01:00:00 -4 3 Sudoeste 8 Sur 0 -- -- 98
2019-11-17 00:00:00 -4.4 2 Sur 9 Oeste 0 -- -- 95
2019-11-16 23:00:00 -3.9 0 Calma 6 Sudeste 0 -- -- 95
2019-11-16 22:00:00 -3.3 3 Nordeste 8 Este 0 -- -- 94
2019-11-16 21:00:00 -2.6 5 Oeste 9 Sudeste 0 -- -- 93
2019-11-16 20:00:00 -1.8 2 Oeste 6 Oeste 0 -- -- 92
2019-11-16 19:00:00 -0.9 0 Calma 4 Norte 0 -- -- 89
2019-11-16 18:00:00 0.6 0 Calma 4 Sudeste 0 -- -- 83
2019-11-16 17:00:00 2.8 4 Sudoeste 8 Noroeste 0 -- -- 73
2019-11-16 16:00:00 3.7 4 Sudoeste 9 Sudoeste 0 -- -- 62
2019-11-16 15:00:00 4.3 5 Oeste 16 Sudoeste 0 -- -- 54
2019-11-16 14:00:00 5.3 6 Sudoeste 12 Sudoeste 0 -- -- 48
2019-11-16 13:00:00 4 4 Sur 9 Sudoeste 0 -- -- 57
2019-11-16 12:00:00 2 4 Sur 6 Sur 0 -- -- 64
2019-11-16 11:00:00 -1.1 0 Calma 6 Sudeste 0 -- -- 82
2019-11-16 10:00:00 -5.8 0 Calma 4 Sudeste 0 -- -- 99
2019-11-16 09:00:00 -7.4 0 Calma 4 Sudeste 0 -- -- 96
2019-11-16 08:00:00 -7.6 3 Nordeste 6 Sudeste 0 -- -- 96
2019-11-16 07:00:00 -7.6 0 Calma 6 Norte 0 -- -- 96
2019-11-16 06:00:00 -7.4 0 Calma 4 Norte 0 -- -- 97
2019-11-16 05:00:00 -7 0 Calma 8 Sudeste 0 -- -- 96
2019-11-16 04:00:00 -6.6 0 Calma 4 Noroeste 0 -- -- 97
2019-11-16 03:00:00 -6.2 2 Nordeste 7 Sudeste 0 -- -- 95
2019-11-16 02:00:00 -5.8 2 Sur 5 Sudeste 0 -- -- 95
2019-11-16 01:00:00 -5 0 Calma 8 Sudeste 0 -- -- 95
2019-11-16 00:00:00 -4.2 4 Nordeste 9 Noroeste 0 -- -- 95